Highland, NY (12528)

12:49 AM EST on November 28, 2014 (GMT -0500)
Town of Lloyd | Change Station
CLOSE
Current Station
Personal Weather Station
Location: Highland, NY
Elevation: 315 ft
Nearby Weather Stations

Elev 315 ft 41.72 °N, 73.97 °W | Updated 5 seconds ago

Overcast
Overcast
24.3 °F
Feels Like 24 °F
N
0.0
Wind Variable Wind from North
Gusts 0.0 mph

Today
High -- | Low -- °F
--% Chance of Precip.
Yesterday
High -- | Low -- °F
Precip. -- in
7:00 AM 4:27 PM
Waxing Crescent, 37% visible
Pressure 30.04 in
Visibility 0.5 miles
Clouds Scattered Clouds 6000 ft
Windchill 24 °F
Dew Point 23 °F
Humidity 95%
Rainfall 0.00 in
Snow Depth Not available.
UV 0 out of 12
Pollen .10 out of 12
Air Quality Not available.
Flu Activity Not available.
SPECI KPOU 280541Z AUTO 00000KT 1/2SM FZFG SCT060 M02/M04 A3004 RMK AO2 I1000 T10221044 TSNO

More Conditions Fewer Conditions

Pressure 30.04 in
Visibility 0.5 miles
Clouds Scattered Clouds 6000 ft
Windchill 24 °F
Dew Point 23 °F
Humidity 95%
Rainfall 0.00 in
Snow Depth Not available.
UV 0 out of 12
Pollen .10 out of 12
Air Quality Not available.
Flu Activity Not available.
SPECI KPOU 280541Z AUTO 00000KT 1/2SM FZFG SCT060 M02/M04 A3004 RMK AO2 I1000 T10221044 TSNO

More Conditions Fewer Conditions

10-Day Weather Forecast

Almanac

Astronomy

Nov. 28, 2014 Rise Set
Actual Time
Civil Twilight
Nautical Twilight
Astronomical Twilight
Moon
Length of Visible Light
Length of Day
Tomorrow will be .
, % of the Moon is Illuminated

Today's Extremes

State Highs State Lows

Community

WunderPhotos

Upload Photos

1,774,195 photos uploaded!

WunderBlogs® & News

Nearby

Air Quality

  Air Quality AQ Index Pollutant
Not available.

Snow Depth

Station Depth Elevation

Earthquake Activity

City Distance Mag. Time & Date
Minimum magnitude displayed is 2.5.

Coastal Water Temperatures

Place Temperature

Nearby Weather Stations